Time;durP1;ratioP1;P1;durP2;ratioP2;P2;SDS_P1;SDS_P2;PMS_P1;PMS_P2;Temp;Humidity;BMP_temperature;BMP_pressure;BME280_temperature;BME280_humidity;BME280_pressure;Samples;Min_cycle;Max_cycle;Signal;HPM_P1;HPM_P2
2023/09/11 00:01:20;;;;;;;;;17.40;15.20;;;;;21.30;33.58;99518.16;5106416;28;8948;-74
2023/09/11 00:03:50;;;;;;;;;12.00;12.00;;;;;21.35;33.82;99509.84;5105282;28;8972;-75
2023/09/11 00:06:18;;;;;;;;;15.80;11.80;;;;;21.42;33.61;99511.13;5106951;28;8849;-77
2023/09/11 00:08:48;;;;;;;;;15.80;13.60;;;;;21.45;33.71;99506.44;5106199;28;8813;-76
2023/09/11 00:11:16;;;;;;;;;16.00;15.20;;;;;21.45;33.77;99502.94;5088459;28;8876;-76
2023/09/11 00:13:45;;;;;;;;;12.00;12.00;;;;;21.47;33.11;99503.69;5094413;28;8881;-77
2023/09/11 00:16:15;;;;;;;;;12.60;12.20;;;;;21.49;33.13;99504.44;5062161;28;8849;-75
2023/09/11 00:18:45;;;;;;;;;15.60;15.60;;;;;21.47;33.43;99497.47;5126016;27;8916;-76
2023/09/11 00:21:14;;;;;;;;;13.80;13.80;;;;;21.35;33.46;99502.69;5124977;27;9650;-74
2023/09/11 00:23:43;;;;;;;;;13.60;13.60;;;;;21.43;32.95;99496.81;5126437;27;8876;-76
2023/09/11 00:26:12;;;;;;;;;14.80;14.80;;;;;21.19;34.13;99499.31;5116524;28;8978;-77
2023/09/11 00:28:41;;;;;;;;;15.00;15.00;;;;;21.00;34.15;99494.31;5088873;28;8855;-76
2023/09/11 00:31:10;;;;;;;;;17.20;16.00;;;;;21.04;34.08;99502.00;5088494;28;8877;-74
2023/09/11 00:33:41;;;;;;;;;10.00;9.60;;;;;21.15;33.88;99495.13;5105898;28;8843;-76
2023/09/11 00:36:09;;;;;;;;;15.60;14.60;;;;;21.19;33.27;99504.66;5093984;27;8865;-74
2023/09/11 00:38:39;;;;;;;;;17.60;13.00;;;;;21.24;33.48;99495.38;5126043;27;8873;-75
2023/09/11 00:41:08;;;;;;;;;13.00;12.20;;;;;21.10;33.77;99495.41;5109090;27;8964;-77
2023/09/11 00:43:37;;;;;;;;;13.80;13.80;;;;;20.94;34.18;99489.38;5125725;27;8834;-77
2023/09/11 00:46:06;;;;;;;;;12.40;12.40;;;;;20.82;34.58;99494.53;5126177;27;8849;-76
2023/09/11 00:48:35;;;;;;;;;14.40;13.60;;;;;20.67;34.33;99492.81;5126325;27;8846;-78
2023/09/11 00:51:06;;;;;;;;;12.60;12.60;;;;;20.81;34.67;99497.28;5108877;28;8873;-78
2023/09/11 00:53:35;;;;;;;;;14.20;13.80;;;;;20.79;35.01;99494.72;5106295;28;8941;-78
2023/09/11 00:56:05;;;;;;;;;15.80;14.40;;;;;20.91;34.57;99492.22;5083478;28;8833;-74
2023/09/11 00:58:34;;;;;;;;;15.20;14.00;;;;;20.97;34.31;99492.69;5045216;28;8816;-76
2023/09/11 01:01:02;;;;;;;;;14.00;12.80;;;;;21.05;34.87;99497.56;5090412;28;8982;-75
2023/09/11 01:03:32;;;;;;;;;16.40;15.40;;;;;21.09;34.13;99493.72;5108408;28;8851;-78
2023/09/11 01:06:02;;;;;;;;;15.60;15.40;;;;;21.12;34.56;99492.66;5072829;28;9020;-76
2023/09/11 01:08:32;;;;;;;;;15.40;14.00;;;;;21.19;34.29;99500.16;5094906;27;8851;-77
2023/09/11 01:11:01;;;;;;;;;14.60;14.00;;;;;21.18;34.52;99490.44;5054911;28;9628;-77
2023/09/11 01:13:30;;;;;;;;;16.60;14.40;;;;;21.17;34.81;99495.88;5106623;28;8921;-76
2023/09/11 01:16:06;;;;;;;;;19.40;18.20;;;;;21.23;34.89;99498.13;5106431;28;8944;-75
2023/09/11 01:18:43;;;;;;;;;17.40;15.60;;;;;21.25;34.59;99488.19;5089941;28;8872;-77
2023/09/11 01:21:47;;;;;;;;;15.40;15.40;;;;;21.32;34.63;99484.16;5090937;28;8856;-75
2023/09/11 01:24:35;;;;;;;;;22.20;18.00;;;;;21.32;34.82;99484.16;5027846;28;8912;-76
2023/09/11 01:27:54;;;;;;;;;17.60;16.60;;;;;21.39;34.64;99488.16;5011658;28;8983;-78
2023/09/11 01:30:26;;;;;;;;;17.60;17.20;;;;;21.25;35.28;99494.41;5031826;28;8875;-75
2023/09/11 01:32:55;;;;;;;;;18.20;17.00;;;;;21.20;35.58;99484.97;5068360;28;8941;-77
2023/09/11 01:35:25;;;;;;;;;16.80;16.80;;;;;21.16;35.52;99480.78;5068369;28;8836;-76
2023/09/11 01:37:55;;;;;;;;;21.00;20.20;;;;;21.14;35.40;99491.56;5051555;28;8836;-76
2023/09/11 01:40:30;;;;;;;;;16.00;15.00;;;;;21.15;35.27;99493.31;5068472;28;8832;-77
2023/09/11 01:43:03;;;;;;;;;16.00;16.00;;;;;21.09;35.06;99496.38;5036594;28;8860;-76
2023/09/11 01:45:36;;;;;;;;;17.60;15.80;;;;;21.08;34.48;99496.47;5011549;28;8884;-76
2023/09/11 01:48:08;;;;;;;;;17.20;17.20;;;;;21.02;34.54;99493.25;5056337;28;8855;-78
2023/09/11 01:50:39;;;;;;;;;15.20;15.20;;;;;21.03;34.91;99502.13;5023570;28;8914;-74
2023/09/11 01:53:08;;;;;;;;;18.00;17.00;;;;;20.98;34.62;99497.09;5061097;28;9041;-75
2023/09/11 01:55:38;;;;;;;;;15.40;14.00;;;;;20.99;35.01;99498.81;5023208;28;8965;-77
2023/09/11 01:58:06;;;;;;;;;17.40;17.40;;;;;21.01;34.70;99496.91;5052033;28;9641;-77
2023/09/11 02:00:37;;;;;;;;;17.40;15.60;;;;;21.04;34.81;99495.81;5026396;28;8837;-75
2023/09/11 02:03:06;;;;;;;;;19.00;18.20;;;;;21.04;35.30;99490.47;5126511;27;8927;-76
2023/09/11 02:05:35;;;;;;;;;18.40;17.40;;;;;21.01;35.17;99496.91;5109185;28;8922;-77
2023/09/11 02:08:04;;;;;;;;;22.80;20.40;;;;;21.00;35.86;99481.81;5126245;27;8945;-76
2023/09/11 02:10:34;;;;;;;;;17.80;17.80;;;;;21.00;36.51;99488.97;5090052;28;8839;-76
2023/09/11 02:13:02;;;;;;;;;20.60;19.20;;;;;21.00;35.83;99481.81;5087855;28;8840;-78
2023/09/11 02:15:31;;;;;;;;;19.80;18.60;;;;;20.92;36.15;99480.56;5089102;27;8882;-75
2023/09/11 02:18:01;;;;;;;;;22.20;19.40;;;;;20.87;36.40;99488.88;5111146;28;8870;-76
2023/09/11 02:20:30;;;;;;;;;17.60;17.60;;;;;20.58;37.13;99480.94;5102635;28;8876;-75
2023/09/11 02:22:59;;;;;;;;;22.00;19.20;;;;;20.28;37.30;99487.25;5103851;28;8856;-76
2023/09/11 02:25:28;;;;;;;;;20.00;17.80;;;;;20.12;38.20;99494.44;5069535;28;8852;-76
2023/09/11 02:27:57;;;;;;;;;18.40;18.40;;;;;20.07;37.80;99489.41;5083637;28;8874;-74
2023/09/11 02:30:26;;;;;;;;;16.80;16.80;;;;;20.00;38.24;99487.19;5067055;28;8998;-76
2023/09/11 02:32:55;;;;;;;;;19.80;19.20;;;;;20.00;37.86;99485.38;5083552;28;8851;-78
2023/09/11 02:35:25;;;;;;;;;19.00;17.40;;;;;19.95;37.83;99484.78;5049515;28;8836;-75
2023/09/11 02:37:54;;;;;;;;;22.20;21.00;;;;;20.08;37.93;99488.47;5083812;28;8859;-76
2023/09/11 02:40:23;;;;;;;;;18.00;17.40;;;;;20.22;38.08;99476.91;5066446;28;8966;-76
2023/09/11 02:42:52;;;;;;;;;20.60;20.60;;;;;20.32;37.88;99479.91;5066776;28;9632;-75
2023/09/11 02:45:21;;;;;;;;;23.40;20.00;;;;;20.42;37.65;99481.03;5083352;28;8877;-75
2023/09/11 02:47:50;;;;;;;;;19.40;19.40;;;;;20.48;38.22;99475.31;5067505;28;8843;-76
2023/09/11 02:50:19;;;;;;;;;18.80;17.80;;;;;20.53;38.02;99476.84;5070887;28;8893;-76
2023/09/11 02:52:49;;;;;;;;;19.80;19.60;;;;;20.55;37.73;99473.09;5087892;28;8942;-76
2023/09/11 02:55:19;;;;;;;;;17.40;17.40;;;;;20.58;37.42;99477.41;5103707;28;8889;-75
2023/09/11 02:57:47;;;;;;;;;19.80;18.00;;;;;20.59;37.91;99473.75;5089826;28;8889;-77
2023/09/11 03:00:16;;;;;;;;;20.80;19.40;;;;;20.60;37.97;99467.47;5073347;28;8846;-75
2023/09/11 03:02:46;;;;;;;;;21.80;20.60;;;;;20.58;37.89;99472.06;5069729;28;8865;-74
2023/09/11 03:05:15;;;;;;;;;20.60;18.60;;;;;20.58;37.91;99467.56;5069351;28;9023;-77
2023/09/11 03:07:44;;;;;;;;;18.80;18.80;;;;;20.57;38.21;99459.66;5069214;28;8849;-75
2023/09/11 03:10:15;;;;;;;;;22.40;19.20;;;;;20.55;38.13;99469.56;5068945;28;8937;-75
2023/09/11 03:12:44;;;;;;;;;18.00;17.60;;;;;20.51;37.65;99468.91;5086126;28;8891;-75
2023/09/11 03:15:13;;;;;;;;;22.40;21.40;;;;;20.50;38.37;99469.88;5086039;28;8945;-76
2023/09/11 03:17:42;;;;;;;;;19.40;17.80;;;;;20.51;38.42;99460.91;5086115;28;8856;-76
2023/09/11 03:20:12;;;;;;;;;20.00;18.80;;;;;20.51;37.86;99465.41;5100317;27;9737;-76
2023/09/11 03:22:40;;;;;;;;;15.00;15.00;;;;;20.51;37.00;99452.03;5109661;27;8895;-75
2023/09/11 03:25:10;;;;;;;;;15.60;14.20;;;;;20.47;36.34;99462.06;5076478;27;8893;-75
2023/09/11 03:27:40;;;;;;;;;14.60;12.80;;;;;20.44;35.75;99452.44;5088592;28;8855;-74
2023/09/11 03:30:10;;;;;;;;;17.40;16.00;;;;;20.41;35.60;99459.78;5067501;28;8846;-76
2023/09/11 03:32:39;;;;;;;;;12.80;12.60;;;;;20.41;35.49;99451.78;5092222;27;9646;-76
2023/09/11 03:35:09;;;;;;;;;13.60;13.60;;;;;20.42;35.20;99456.16;5092731;27;9619;-76
2023/09/11 03:37:38;;;;;;;;;13.20;13.20;;;;;20.39;35.08;99456.34;5143831;27;9036;-75
2023/09/11 03:40:10;;;;;;;;;16.40;13.20;;;;;20.39;34.83;99461.69;5126885;27;8834;-75
2023/09/11 03:42:40;;;;;;;;;14.60;12.20;;;;;20.42;34.74;99458.81;5066177;28;8886;-75
2023/09/11 03:45:10;;;;;;;;;13.00;11.60;;;;;20.38;34.85;99462.63;5117289;27;8853;-77
2023/09/11 03:47:39;;;;;;;;;12.60;11.00;;;;;20.43;34.88;99461.41;5093318;27;9620;-78
2023/09/11 03:50:09;;;;;;;;;14.40;14.40;;;;;20.43;34.66;99456.06;5109685;27;8913;-76
2023/09/11 03:52:38;;;;;;;;;12.40;12.00;;;;;20.46;34.58;99457.66;5109495;27;8935;-75
2023/09/11 03:55:08;;;;;;;;;13.00;13.00;;;;;20.46;34.80;99457.66;5109718;27;8866;-77
2023/09/11 03:57:37;;;;;;;;;12.20;10.80;;;;;20.46;34.66;99455.00;5111023;27;8857;-75
2023/09/11 04:00:08;;;;;;;;;12.00;12.00;;;;;20.49;34.28;99457.47;5055521;28;8883;-75
2023/09/11 04:02:40;;;;;;;;;14.00;14.00;;;;;20.45;34.28;99454.13;5105865;28;8841;-75
2023/09/11 04:05:09;;;;;;;;;12.40;12.40;;;;;20.48;34.34;99450.41;5065807;28;8842;-76
2023/09/11 04:07:38;;;;;;;;;13.00;12.00;;;;;20.52;34.31;99449.28;5085110;28;8914;-76
2023/09/11 04:10:08;;;;;;;;;13.40;13.20;;;;;20.57;34.92;99454.31;5087225;28;8851;-75
2023/09/11 04:12:37;;;;;;;;;11.60;11.40;;;;;20.58;34.16;99456.88;5049691;28;8967;-75
2023/09/11 04:15:08;;;;;;;;;12.60;12.00;;;;;20.61;34.49;99455.81;5083108;28;9627;-76
2023/09/11 04:17:37;;;;;;;;;14.20;13.00;;;;;20.58;34.73;99446.22;5067500;28;8862;-74
2023/09/11 04:20:09;;;;;;;;;13.80;12.40;;;;;20.54;34.17;99444.69;5067778;28;8866;-75
2023/09/11 04:22:38;;;;;;;;;11.60;11.00;;;;;20.56;33.81;99436.56;5057222;28;8860;-76
2023/09/11 04:25:07;;;;;;;;;10.20;10.20;;;;;20.56;33.63;99441.91;5107013;28;8833;-76
2023/09/11 04:27:36;;;;;;;;;11.40;11.00;;;;;20.54;33.70;99451.81;5106614;28;8857;-75
2023/09/11 04:30:08;;;;;;;;;32.50;30.25;;;;;20.59;33.70;99439.91;5069621;28;8863;-78
2023/09/11 04:32:37;;;;;;;;;22.00;19.80;;;;;20.64;34.03;99448.47;5087748;28;8856;-76
2023/09/11 04:35:07;;;;;;;;;17.40;17.40;;;;;20.65;33.79;99447.53;5069504;28;8847;-72
2023/09/11 04:37:36;;;;;;;;;14.00;14.00;;;;;20.71;34.09;99448.94;5089890;28;8878;-71
2023/09/11 04:40:06;;;;;;;;;18.20;18.20;;;;;20.78;34.70;99447.56;5097395;28;8857;-72
2023/09/11 04:42:37;;;;;;;;;19.40;19.40;;;;;20.80;35.01;99447.47;5089917;28;8861;-70
2023/09/11 04:45:09;;;;;;;;;24.50;23.50;;;;;20.72;36.02;99458.66;5089947;28;8840;-71
2023/09/11 04:47:38;;;;;;;;;30.00;28.75;;;;;20.77;35.68;99447.69;5091207;28;8988;-73
2023/09/11 04:50:08;;;;;;;;;40.00;34.00;;;;;20.67;36.32;99453.63;5098953;28;8853;-71
2023/09/11 04:52:37;;;;;;;;;45.00;36.25;;;;;20.76;36.01;99456.66;5110305;28;8996;-72
2023/09/11 04:55:06;;;;;;;;;28.50;25.25;;;;;20.80;36.31;99456.38;5110095;28;9606;-71
2023/09/11 04:57:36;;;;;;;;;24.00;23.60;;;;;20.80;35.77;99459.03;5121749;27;9072;-72
2023/09/11 05:00:09;;;;;;;;;24.50;22.00;;;;;20.65;36.66;99454.66;5109376;28;8877;-72
2023/09/11 05:02:40;;;;;;;;;23.60;22.60;;;;;20.57;36.14;99460.50;5106576;28;8860;-71
2023/09/11 05:05:09;;;;;;;;;23.80;22.60;;;;;20.52;36.60;99461.75;5106160;28;8863;-72
2023/09/11 05:07:38;;;;;;;;;24.00;23.80;;;;;20.34;36.83;99464.63;5088998;28;8881;-72
2023/09/11 05:10:09;;;;;;;;;25.25;24.00;;;;;20.41;36.67;99459.78;5089038;28;8863;-72
2023/09/11 05:12:39;;;;;;;;;33.00;31.00;;;;;20.63;36.98;99465.47;5089482;28;8886;-71
2023/09/11 05:15:10;;;;;;;;;27.25;27.25;;;;;20.79;37.02;99464.47;5099257;27;9567;-71
2023/09/11 05:17:39;;;;;;;;;34.75;30.75;;;;;20.91;37.40;99461.00;5109752;28;9026;-71
2023/09/11 05:20:08;;;;;;;;;47.75;39.50;;;;;21.02;36.11;99463.84;5074617;28;8880;-71
2023/09/11 05:22:38;;;;;;;;;21.80;19.80;;;;;21.03;35.55;99467.38;5109464;28;8849;-71
2023/09/11 05:25:08;;;;;;;;;20.80;20.40;;;;;21.00;35.54;99467.59;5090026;28;8858;-72
2023/09/11 05:27:37;;;;;;;;;21.40;20.00;;;;;21.01;35.05;99462.16;5089613;28;8859;-71
2023/09/11 05:30:07;;;;;;;;;21.40;20.20;;;;;21.16;35.27;99468.31;5089761;28;8837;-74
2023/09/11 05:32:37;;;;;;;;;25.60;24.00;;;;;21.23;34.71;99469.59;5095984;27;8945;-71
2023/09/11 05:35:07;;;;;;;;;15.00;15.00;;;;;21.42;35.09;99471.03;5096461;28;8858;-71
2023/09/11 05:37:36;;;;;;;;;20.40;19.60;;;;;21.58;34.83;99468.19;5104857;28;9625;-73
2023/09/11 05:40:07;;;;;;;;;28.75;28.50;;;;;21.66;34.21;99468.53;5089756;28;8824;-73
2023/09/11 05:42:35;;;;;;;;;28.75;27.00;;;;;21.69;34.90;99472.81;5084705;28;8891;-74
2023/09/11 05:45:06;;;;;;;;;19.20;19.20;;;;;21.61;33.81;99466.16;5090040;28;8856;-72
2023/09/11 05:47:36;;;;;;;;;24.60;21.60;;;;;21.72;33.86;99460.09;5067620;28;8841;-72
2023/09/11 05:50:09;;;;;;;;;23.60;21.60;;;;;21.95;34.64;99466.50;5090987;28;8844;-73
2023/09/11 05:52:38;;;;;;;;;23.50;20.75;;;;;22.06;33.85;99467.59;5104270;28;9570;-74
2023/09/11 05:55:08;;;;;;;;;25.50;25.50;;;;;21.94;34.04;99470.16;5089346;28;8888;-74
2023/09/11 05:57:37;;;;;;;;;21.80;20.20;;;;;21.87;34.23;99470.69;5082282;28;8852;-76
2023/09/11 06:00:12;;;;;;;;;22.20;19.80;;;;;21.68;35.38;99468.44;5089709;28;8856;-73
2023/09/11 06:02:44;;;;;;;;;19.40;19.20;;;;;21.53;35.78;99472.97;5089406;28;8940;-73
2023/09/11 06:05:16;;;;;;;;;17.00;16.80;;;;;21.62;34.70;99464.38;5086969;28;8836;-73
2023/09/11 06:07:45;;;;;;;;;1.80;0.80;;;;;21.52;35.48;99477.50;5098685;28;8864;-74
2023/09/11 06:10:14;;;;;;;;;19.40;18.80;;;;;21.40;35.80;99475.63;5087931;28;8832;-74
2023/09/11 06:12:43;;;;;;;;;19.20;18.00;;;;;21.49;34.87;99468.81;5097512;28;8833;-73
2023/09/11 06:15:12;;;;;;;;;19.00;19.00;;;;;21.59;34.84;99475.22;5101355;28;9636;-74
2023/09/11 06:17:41;;;;;;;;;21.60;19.40;;;;;21.71;34.89;99492.28;5109214;28;8873;-73
2023/09/11 06:20:15;;;;;;;;;19.80;19.80;;;;;21.76;35.33;99487.50;5092275;28;8933;-73
2023/09/11 06:22:45;;;;;;;;;23.20;22.80;;;;;22.03;34.54;99487.38;5089430;28;8887;-72
2023/09/11 06:25:15;;;;;;;;;19.75;19.00;;;;;22.09;33.38;99486.09;5089042;28;8870;-69
2023/09/11 06:27:43;;;;;;;;;16.20;15.00;;;;;22.59;33.18;99482.53;5089124;28;8844;-68
2023/09/11 06:30:13;;;;;;;;;14.00;14.00;;;;;22.86;31.38;99484.16;5087101;28;9597;-71
2023/09/11 06:32:42;;;;;;;;;13.20;13.20;;;;;23.14;30.58;99483.00;5090099;28;8855;-71
2023/09/11 06:35:11;;;;;;;;;14.40;14.40;;;;;23.35;30.06;99485.91;5101027;28;8878;-67
2023/09/11 06:37:41;;;;;;;;;14.40;12.00;;;;;23.64;29.77;99485.56;5080287;28;8859;-69
2023/09/11 06:40:12;;;;;;;;;1.40;0.20;;;;;23.73;28.97;99482.19;5103529;28;8840;-73
2023/09/11 06:42:42;;;;;;;;;10.20;10.20;;;;;23.89;28.71;99475.63;5086436;28;8851;-75
2023/09/11 06:45:33;;;;;;;;;11.00;10.40;;;;;24.02;28.80;99484.44;5075413;28;10095;-75
2023/09/11 06:48:03;;;;;;;;;11.20;11.20;;;;;24.11;28.38;99478.34;5069133;28;9595;-76
2023/09/11 06:50:32;;;;;;;;;8.40;8.00;;;;;24.19;28.07;99488.50;5050241;28;8860;-74
2023/09/11 06:53:29;;;;;;;;;13.00;13.00;;;;;24.37;27.96;99486.16;5045468;28;8845;-73
2023/09/11 06:56:12;;;;;;;;;10.60;10.60;;;;;24.53;27.72;99486.66;5016875;28;8873;-75
2023/09/11 06:58:42;;;;;;;;;9.20;9.20;;;;;24.46;28.20;99489.97;5044880;28;8853;-75
2023/09/11 07:01:11;;;;;;;;;11.20;11.00;;;;;24.54;27.52;99492.88;5046536;28;8857;-75
2023/09/11 07:03:40;;;;;;;;;12.80;12.80;;;;;24.68;27.75;99489.94;5032692;28;8856;-72
2023/09/11 07:06:10;;;;;;;;;11.80;11.80;;;;;24.84;27.76;99494.09;5045460;28;8875;-73
2023/09/11 07:08:40;;;;;;;;;13.00;12.80;;;;;24.96;27.37;99484.16;5045870;28;8869;-73
2023/09/11 07:11:33;;;;;;;;;10.80;10.80;;;;;24.96;27.01;99492.22;5043187;28;8853;-74
2023/09/11 07:14:12;;;;;;;;;11.20;11.20;;;;;25.02;27.20;99489.91;5046128;28;8938;-75
2023/09/11 07:16:41;;;;;;;;;12.80;12.80;;;;;25.10;26.56;99490.13;5045646;28;8881;-74
2023/09/11 07:19:10;;;;;;;;;10.00;10.00;;;;;25.18;27.20;99488.63;5045407;28;8841;-75
2023/09/11 07:21:41;;;;;;;;;11.00;11.00;;;;;25.16;26.79;99491.44;5045491;28;8845;-71
2023/09/11 07:24:12;;;;;;;;;13.60;11.80;;;;;25.21;26.87;99489.22;5074647;28;8869;-83
2023/09/11 07:26:41;;;;;;;;;13.00;13.00;;;;;25.29;27.06;99489.44;5070311;28;8842;-79
2023/09/11 07:29:13;;;;;;;;;11.80;11.80;;;;;25.35;27.18;99484.56;5070993;28;8877;-82
2023/09/11 07:31:42;;;;;;;;;14.40;13.20;;;;;25.38;26.88;99484.28;5070754;28;8850;-80
2023/09/11 07:34:12;;;;;;;;;12.20;12.20;;;;;25.47;27.20;99483.50;5064952;28;8888;-81
2023/09/11 07:36:42;;;;;;;;;13.00;13.00;;;;;25.57;27.19;99486.28;5083696;28;9026;-79
2023/09/11 07:39:12;;;;;;;;;11.00;9.60;;;;;25.60;26.81;99483.34;5095528;28;8852;-80
2023/09/11 07:41:41;;;;;;;;;15.20;14.20;;;;;25.70;27.38;99489.66;5089025;28;10005;-81
2023/09/11 07:44:10;;;;;;;;;12.40;12.40;;;;;25.85;26.97;99482.94;5090310;28;8852;-81
2023/09/11 07:46:39;;;;;;;;;12.60;12.00;;;;;25.95;27.20;99483.03;5092465;28;8851;-80
2023/09/11 07:49:09;;;;;;;;;10.80;10.80;;;;;26.01;26.67;99487.88;5088884;28;8848;-79
2023/09/11 07:51:38;;;;;;;;;13.00;13.00;;;;;26.13;26.36;99491.34;5054182;28;8862;-83
2023/09/11 07:54:07;;;;;;;;;12.40;12.00;;;;;26.16;26.45;99480.31;5104687;28;8855;-79
2023/09/11 07:56:37;;;;;;;;;11.00;11.00;;;;;26.25;26.69;99487.59;5089191;28;8875;-80
2023/09/11 07:59:06;;;;;;;;;12.40;12.40;;;;;26.37;26.76;99480.25;5104607;28;8859;-80
2023/09/11 08:01:37;;;;;;;;;12.00;11.20;;;;;26.33;26.64;99488.75;5086456;28;8901;-79
2023/09/11 08:04:06;;;;;;;;;10.60;10.60;;;;;26.51;26.62;99486.28;5088692;28;8863;-84
2023/09/11 08:06:36;;;;;;;;;13.60;12.80;;;;;26.47;26.82;99488.41;5089304;28;8843;-79
2023/09/11 08:09:05;;;;;;;;;10.40;10.40;;;;;26.57;26.55;99494.69;5069815;28;8848;-83
2023/09/11 08:11:39;;;;;;;;;11.80;11.60;;;;;26.58;26.40;99487.44;5089093;28;8855;-80
2023/09/11 08:14:09;;;;;;;;;12.80;12.80;;;;;26.50;26.50;99482.75;5114168;28;8886;-80
2023/09/11 08:16:38;;;;;;;;;10.80;10.80;;;;;26.58;26.55;99490.16;5092302;28;9637;-81
2023/09/11 08:19:07;;;;;;;;;11.80;10.80;;;;;26.64;26.72;99492.28;5093153;28;8897;-79
2023/09/11 08:21:36;;;;;;;;;11.80;10.80;;;;;26.61;26.57;99489.88;5092592;28;8856;-80
2023/09/11 08:24:06;;;;;;;;;8.80;7.60;;;;;26.66;26.78;99488.47;5110170;28;8843;-81
2023/09/11 08:26:35;;;;;;;;;11.00;11.00;;;;;26.65;26.76;99486.75;5066289;28;8848;-79
2023/09/11 08:29:03;;;;;;;;;14.80;12.00;;;;;26.63;26.73;99483.34;5085260;28;8855;-79
2023/09/11 08:31:34;;;;;;;;;14.00;12.20;;;;;26.67;26.36;99478.53;5076108;28;8847;-79
2023/09/11 08:34:03;;;;;;;;;10.20;10.00;;;;;26.70;26.43;99490.88;5092948;28;8894;-80
2023/09/11 08:36:32;;;;;;;;;11.00;10.80;;;;;26.76;26.38;99483.13;5093124;28;8840;-79
2023/09/11 08:39:02;;;;;;;;;14.00;12.80;;;;;26.78;26.51;99482.97;5099224;28;8849;-74
2023/09/11 08:41:32;;;;;;;;;14.00;14.00;;;;;26.75;26.42;99485.94;5101127;28;8867;-78
2023/09/11 08:44:00;;;;;;;;;14.00;12.20;;;;;26.78;26.14;99486.53;5091943;28;8871;-76
2023/09/11 08:46:32;;;;;;;;;12.00;11.00;;;;;26.81;26.33;99477.28;5090675;28;8839;-77
2023/09/11 08:49:08;;;;;;;;;12.60;12.60;;;;;26.70;25.91;99472.84;5091169;28;9723;-77
2023/09/11 08:51:49;;;;;;;;;11.60;10.80;;;;;26.66;25.79;99479.53;5090327;28;8862;-76
2023/09/11 08:54:19;;;;;;;;;10.80;10.80;;;;;26.77;26.15;99479.41;5091902;28;8855;-77
2023/09/11 08:56:48;;;;;;;;;9.80;9.80;;;;;26.90;25.71;99489.09;5090649;28;8843;-76
2023/09/11 08:59:22;;;;;;;;;14.00;12.80;;;;;26.93;25.09;99478.00;5105845;28;8869;-79
2023/09/11 09:01:52;;;;;;;;;15.80;14.80;;;;;26.91;25.51;99486.28;5091350;28;8882;-76
2023/09/11 09:04:24;;;;;;;;;9.20;9.20;;;;;26.71;25.28;99471.88;5091180;28;8894;-75
2023/09/11 09:06:55;;;;;;;;;10.20;9.60;;;;;26.90;25.14;99462.97;5105521;28;8832;-78
2023/09/11 09:09:24;;;;;;;;;12.80;12.80;;;;;27.02;25.48;99471.81;5093148;28;8876;-76
2023/09/11 09:11:53;;;;;;;;;12.00;12.00;;;;;27.10;25.10;99466.59;5095595;28;8851;-79
2023/09/11 09:14:27;;;;;;;;;10.40;10.40;;;;;27.13;24.65;99468.97;5111534;28;8853;-77
2023/09/11 09:16:56;;;;;;;;;11.20;10.80;;;;;27.15;24.97;99467.00;5107324;28;8853;-79
2023/09/11 09:19:26;;;;;;;;;12.60;12.60;;;;;27.17;24.84;99467.69;5103673;28;8973;-78
2023/09/11 09:22:13;;;;;;;;;9.20;8.40;;;;;27.30;24.93;99463.88;5105366;28;8857;-77
2023/09/11 09:24:50;;;;;;;;;10.20;9.60;;;;;27.33;24.56;99466.31;5090763;28;8855;-75
2023/09/11 09:27:20;;;;;;;;;11.60;11.20;;;;;27.41;24.79;99463.75;5103361;28;9574;-78
2023/09/11 09:29:49;;;;;;;;;11.40;11.40;;;;;27.48;24.77;99467.56;5072799;28;8864;-77
2023/09/11 09:32:18;;;;;;;;;11.40;11.40;;;;;27.51;24.45;99459.16;5088775;28;8832;-76
2023/09/11 09:34:54;;;;;;;;;13.20;10.20;;;;;27.52;24.12;99457.34;5090692;28;8852;-76
2023/09/11 09:37:23;;;;;;;;;10.80;10.00;;;;;27.53;24.27;99453.63;5093235;28;8875;-76
2023/09/11 09:39:52;;;;;;;;;13.50;12.75;;;;;27.55;24.46;99454.34;5091115;28;8867;-77
2023/09/11 09:42:21;;;;;;;;;11.20;10.80;;;;;27.66;24.27;99458.75;5091017;28;8868;-82
2023/09/11 09:44:53;;;;;;;;;12.00;12.00;;;;;27.56;24.05;99456.91;5099710;28;8837;-79
2023/09/11 09:47:23;;;;;;;;;13.40;12.40;;;;;27.59;24.25;99453.94;5093863;28;8855;-77
2023/09/11 09:49:55;;;;;;;;;10.25;10.00;;;;;27.70;24.34;99449.38;5089429;28;8875;-77
2023/09/11 09:52:27;;;;;;;;;12.00;10.00;;;;;27.75;23.60;99447.09;5090479;28;8828;-79
2023/09/11 09:54:58;;;;;;;;;10.75;10.75;;;;;27.59;24.03;99453.94;5090576;28;8879;-77
2023/09/11 09:57:28;;;;;;;;;10.80;10.80;;;;;27.64;23.44;99448.94;5090253;28;8886;-76
2023/09/11 09:59:58;;;;;;;;;9.20;9.20;;;;;27.71;23.38;99445.69;5104250;28;8867;-75
2023/09/11 10:02:29;;;;;;;;;12.20;11.80;;;;;27.77;23.49;99447.78;5083095;28;8864;-75
2023/09/11 10:05:02;;;;;;;;;10.80;10.80;;;;;27.95;23.49;99443.34;5091417;28;9028;-77
2023/09/11 10:07:38;;;;;;;;;12.20;11.60;;;;;28.10;23.36;99448.25;5089944;28;8875;-77
2023/09/11 10:10:21;;;;;;;;;11.00;11.00;;;;;28.09;22.91;99441.16;5089490;28;8843;-77
2023/09/11 10:13:01;;;;;;;;;11.80;10.00;;;;;28.09;22.90;99438.47;5088176;28;8832;-76
2023/09/11 10:15:30;;;;;;;;;10.50;10.50;;;;;28.16;22.89;99435.03;5089881;28;8886;-76
2023/09/11 10:18:00;;;;;;;;;11.20;11.20;;;;;28.28;22.72;99437.56;5087991;28;8858;-75
2023/09/11 10:20:32;;;;;;;;;8.60;8.60;;;;;28.25;22.97;99433.28;5089452;28;8824;-76
2023/09/11 10:23:03;;;;;;;;;10.00;9.80;;;;;28.26;22.79;99429.59;5089355;28;8886;-75
2023/09/11 10:25:34;;;;;;;;;11.80;11.80;;;;;28.23;23.07;99419.06;5089365;28;8844;-75
2023/09/11 10:28:05;;;;;;;;;11.60;11.60;;;;;28.26;22.74;99431.44;5070092;28;8852;-74
2023/09/11 10:30:39;;;;;;;;;11.50;10.50;;;;;28.31;22.60;99429.13;5091696;28;8959;-76
2023/09/11 10:33:22;;;;;;;;;10.40;8.80;;;;;28.41;22.87;99428.09;5110270;28;8845;-76
2023/09/11 10:35:56;;;;;;;;;11.40;11.00;;;;;28.45;22.89;99417.81;5075409;28;8863;-77
2023/09/11 10:38:29;;;;;;;;;12.20;12.20;;;;;28.43;22.88;99419.81;5119478;27;8843;-74
2023/09/11 10:41:01;;;;;;;;;12.25;10.50;;;;;28.35;23.30;99417.88;5095739;28;8897;-75
2023/09/11 10:43:30;;;;;;;;;11.80;11.80;;;;;28.35;23.34;99411.63;5109153;28;8865;-77
2023/09/11 10:46:15;;;;;;;;;12.80;12.20;;;;;28.58;22.38;99409.34;5058708;28;8861;-75
2023/09/11 10:48:45;;;;;;;;;11.40;11.40;;;;;28.53;23.02;99407.09;5109627;28;8867;-75
2023/09/11 10:51:16;;;;;;;;;12.20;12.20;;;;;28.50;22.72;99411.94;5107834;28;8856;-76
2023/09/11 10:53:48;;;;;;;;;12.40;12.00;;;;;28.57;22.34;99410.34;5089920;28;8860;-76
2023/09/11 10:56:17;;;;;;;;;11.80;11.60;;;;;28.56;22.70;99408.66;5095972;28;8900;-77
2023/09/11 10:58:47;;;;;;;;;11.00;11.00;;;;;28.70;22.46;99404.59;5089051;28;8871;-75
2023/09/11 11:01:17;;;;;;;;;12.00;9.80;;;;;28.85;22.72;99407.63;5088835;28;8864;-76
2023/09/11 11:03:49;;;;;;;;;11.00;11.00;;;;;29.01;21.89;99410.50;5088871;28;8883;-74
2023/09/11 11:06:24;;;;;;;;;11.80;11.80;;;;;29.14;22.36;99408.25;5088391;28;8864;-74
2023/09/11 11:08:53;;;;;;;;;9.20;9.20;;;;;29.22;22.32;99409.34;5088606;28;8844;-75
2023/09/11 11:11:27;;;;;;;;;14.20;12.40;;;;;29.38;21.42;99402.19;5069468;28;8945;-75
2023/09/11 11:14:11;;;;;;;;;12.75;12.75;;;;;29.64;21.95;99400.53;5088578;28;9010;-74
2023/09/11 11:16:53;;;;;;;;;12.00;11.40;;;;;29.67;21.27;99398.38;5065134;28;9017;-74
2023/09/11 11:19:26;;;;;;;;;11.00;11.00;;;;;29.85;21.66;99398.31;5032248;28;8934;-75
2023/09/11 11:21:56;;;;;;;;;12.25;12.25;;;;;29.91;21.66;99391.41;5065348;28;8984;-75
2023/09/11 11:24:26;;;;;;;;;13.50;12.25;;;;;30.06;21.20;99391.63;5016159;28;8848;-77
2023/09/11 11:26:58;;;;;;;;;13.25;10.50;;;;;30.12;20.99;99391.84;5065661;28;8872;-75
2023/09/11 11:29:27;;;;;;;;;14.00;12.00;;;;;30.29;21.09;99384.63;5032748;28;8856;-73
2023/09/11 11:31:59;;;;;;;;;11.75;11.50;;;;;30.38;20.84;99384.69;5015863;28;8990;-77
2023/09/11 11:34:31;;;;;;;;;10.80;10.00;;;;;30.49;20.44;99384.38;5065508;28;8871;-75
2023/09/11 11:37:03;;;;;;;;;12.75;10.75;;;;;30.59;20.28;99385.06;5065507;28;8890;-75
2023/09/11 11:39:36;;;;;;;;;11.80;10.40;;;;;30.65;20.26;99380.84;5065173;28;8828;-74
2023/09/11 11:42:07;;;;;;;;;11.00;10.75;;;;;30.79;20.16;99382.94;5048098;28;8894;-76
2023/09/11 11:44:37;;;;;;;;;12.25;11.50;;;;;30.80;20.10;99379.19;5050316;28;8865;-77